createdAt,value
2023-03-05T00:04:44.073Z,93132.69
2023-03-05T00:09:47.242Z,93135.16
2023-03-05T00:14:52.085Z,93133.63
2023-03-05T00:19:57.380Z,93130.16
2023-03-05T00:25:00.747Z,93129.66
2023-03-05T00:30:04.914Z,93137.03
2023-03-05T00:35:08.841Z,93145.03
2023-03-05T00:40:12.958Z,93145.09
2023-03-05T00:45:17.151Z,93121.94
2023-03-05T00:50:21.380Z,93105.75
2023-03-05T00:55:25.380Z,93115.00
2023-03-05T01:00:29.323Z,93110.00
2023-03-05T01:05:32.895Z,93110.84
2023-03-05T01:10:36.644Z,93101.94
2023-03-05T01:15:40.793Z,93110.06
2023-03-05T01:20:44.729Z,93099.63
2023-03-05T01:26:01.303Z,93104.03
2023-03-05T01:31:09.358Z,93110.22
2023-03-05T01:36:17.065Z,93114.16
2023-03-05T01:41:21.933Z,93115.72
2023-03-05T01:46:39.273Z,93118.53
2023-03-05T01:52:09.944Z,93111.56
2023-03-05T01:57:17.058Z,93107.25
2023-03-05T02:02:24.861Z,93086.50
2023-03-05T02:07:28.350Z,93107.66
2023-03-05T02:12:31.597Z,93107.53
2023-03-05T02:17:35.131Z,93111.84
2023-03-05T02:22:38.303Z,93117.25
2023-03-05T02:27:44.754Z,93108.63
2023-03-05T02:32:47.830Z,93118.31
2023-03-05T02:37:51.443Z,93122.53
2023-03-05T02:42:54.387Z,93109.91
2023-03-05T02:47:58.354Z,93131.94
2023-03-05T02:53:01.722Z,93118.34
2023-03-05T02:58:06.205Z,93097.00
2023-03-05T03:03:09.846Z,93094.47
2023-03-05T03:08:13.392Z,93104.38
2023-03-05T03:13:16.917Z,93119.59
2023-03-05T03:18:20.244Z,93126.25
2023-03-05T03:23:23.381Z,93120.22
2023-03-05T03:28:27.062Z,93131.47
2023-03-05T03:33:30.035Z,93143.16
2023-03-05T03:38:33.626Z,93156.91
2023-03-05T03:43:37.749Z,93134.59
2023-03-05T03:48:41.151Z,93136.47
2023-03-05T03:53:44.158Z,93113.78
2023-03-05T03:58:51.725Z,93127.41
2023-03-05T04:03:56.825Z,93122.69
2023-03-05T04:08:59.981Z,93118.31
2023-03-05T04:14:03.711Z,93113.72
2023-03-05T04:19:06.744Z,93126.88
2023-03-05T04:24:10.357Z,93128.84
2023-03-05T04:29:13.955Z,93123.00
2023-03-05T04:34:16.917Z,93138.78
2023-03-05T04:39:21.256Z,93108.13
2023-03-05T04:44:26.259Z,93118.25
2023-03-05T04:49:29.840Z,93122.59
2023-03-05T04:54:33.145Z,93139.91
2023-03-05T04:59:38.329Z,93139.63
2023-03-05T05:04:45.257Z,93132.03
2023-03-05T05:09:48.657Z,93134.44
2023-03-05T05:14:51.624Z,93150.53
2023-03-05T05:19:55.724Z,93145.34
2023-03-05T05:24:59.203Z,93145.44
2023-03-05T05:30:02.538Z,93158.25
2023-03-05T05:35:07.256Z,93152.69
2023-03-05T05:40:10.966Z,93165.94
2023-03-05T05:45:14.443Z,93155.69
2023-03-05T05:50:19.915Z,93150.22
2023-03-05T05:55:24.400Z,93148.97
2023-03-05T06:00:27.581Z,93151.28
2023-03-05T06:05:31.384Z,93154.59
2023-03-05T06:10:35.178Z,93174.38
2023-03-05T06:15:38.387Z,93149.47
2023-03-05T06:20:42.038Z,93152.94
2023-03-05T06:25:45.364Z,93141.66
2023-03-05T06:30:48.515Z,93158.53
2023-03-05T06:35:51.551Z,93150.75
2023-03-05T06:40:54.635Z,93166.28
2023-03-05T06:46:06.138Z,93152.13
2023-03-05T06:51:28.142Z,93184.00
2023-03-05T06:56:31.292Z,93188.59
2023-03-05T07:01:36.292Z,93176.38
2023-03-05T07:06:40.496Z,93214.72
2023-03-05T07:11:45.309Z,93201.25
2023-03-05T07:16:48.909Z,93198.13
2023-03-05T07:21:52.457Z,93198.59
2023-03-05T07:26:55.929Z,93193.09
2023-03-05T07:31:59.458Z,93189.25
2023-03-05T07:37:02.684Z,93197.31
2023-03-05T07:42:06.661Z,93203.66
2023-03-05T07:47:25.772Z,93186.41
2023-03-05T07:52:28.780Z,93199.56
2023-03-05T07:57:32.281Z,93212.09
2023-03-05T08:02:35.787Z,93216.50
2023-03-05T08:07:39.526Z,93237.97
2023-03-05T08:12:42.601Z,93224.94
2023-03-05T08:17:46.237Z,93228.41
2023-03-05T08:22:50.079Z,93237.38
2023-03-05T08:27:55.286Z,93240.19
2023-03-05T08:32:58.694Z,93236.44
2023-03-05T08:38:02.169Z,93226.47
2023-03-05T08:43:07.537Z,93210.72
2023-03-05T08:48:11.053Z,93221.41
2023-03-05T08:53:14.568Z,93216.78
2023-03-05T08:58:19.110Z,93211.28
2023-03-05T09:03:23.550Z,93224.50
2023-03-05T09:08:27.190Z,93221.13
2023-03-05T09:13:31.138Z,93225.59
2023-03-05T09:18:36.988Z,93213.09
2023-03-05T09:23:42.616Z,93214.50
2023-03-05T09:28:47.083Z,93216.16
2023-03-05T09:33:51.336Z,93226.00
2023-03-05T09:38:57.755Z,93214.69
2023-03-05T09:44:35.173Z,93225.16
2023-03-05T09:49:58.011Z,93222.13
2023-03-05T09:55:02.429Z,93234.88
2023-03-05T10:00:09.932Z,93229.06
2023-03-05T10:05:23.419Z,93222.53
2023-03-05T10:10:33.986Z,93215.88
2023-03-05T10:16:04.154Z,93235.06
2023-03-05T10:21:12.814Z,93231.09
2023-03-05T10:26:34.470Z,93228.78
2023-03-05T10:32:17.383Z,93214.69
2023-03-05T10:37:47.416Z,93219.69
2023-03-05T10:43:13.040Z,93225.03
2023-03-05T10:48:41.259Z,93217.09
2023-03-05T10:54:02.490Z,93219.34
2023-03-05T10:59:06.277Z,93220.41
2023-03-05T11:04:28.771Z,93214.44
2023-03-05T11:09:34.961Z,93201.13
2023-03-05T11:14:43.228Z,93200.78
2023-03-05T11:19:51.658Z,93196.47
2023-03-05T11:25:15.024Z,93200.16
2023-03-05T11:30:27.096Z,93215.38
2023-03-05T11:35:35.884Z,93205.91
2023-03-05T11:40:39.758Z,93220.25
2023-03-05T11:45:44.516Z,93218.19
2023-03-05T11:50:55.696Z,93226.47
2023-03-05T11:56:06.138Z,93207.00
2023-03-05T12:01:20.220Z,93177.13
2023-03-05T12:06:44.590Z,93194.88
2023-03-05T12:11:54.173Z,93204.38
2023-03-05T12:17:02.517Z,93184.38
2023-03-05T12:22:20.407Z,93144.13
2023-03-05T12:27:35.525Z,93204.75
2023-03-05T12:32:45.288Z,93187.66
2023-03-05T12:37:59.257Z,93180.06
2023-03-05T12:43:05.587Z,93184.94
2023-03-05T12:48:12.925Z,93172.00
2023-03-05T12:53:19.412Z,93173.78
2023-03-05T12:58:34.774Z,93174.97
2023-03-05T13:03:55.511Z,93159.75
2023-03-05T13:09:05.625Z,93146.13
2023-03-05T13:14:33.293Z,93150.16
2023-03-05T13:19:36.920Z,93156.75
2023-03-05T13:24:41.124Z,93149.94
2023-03-05T13:29:53.880Z,93164.78
2023-03-05T13:35:02.326Z,93172.38
2023-03-05T13:40:21.541Z,93151.94
2023-03-05T13:45:28.831Z,93157.34
2023-03-05T13:50:36.215Z,93152.38
2023-03-05T13:55:39.760Z,93154.06
2023-03-05T14:00:43.530Z,93173.47
2023-03-05T14:05:50.189Z,93184.09
2023-03-05T14:10:58.430Z,93174.53
2023-03-05T14:16:07.586Z,93176.56
2023-03-05T14:21:12.950Z,93175.44
2023-03-05T14:26:36.715Z,93166.94
2023-03-05T14:32:23.503Z,93157.75
2023-03-05T14:37:39.772Z,93163.59
2023-03-05T14:42:52.796Z,93144.22
2023-03-05T14:48:00.147Z,93122.06
2023-03-05T14:53:11.017Z,93143.50
2023-03-05T14:58:17.830Z,93156.81
2023-03-05T15:03:22.568Z,93164.78
2023-03-05T15:08:32.209Z,93162.97
2023-03-05T15:13:37.038Z,93162.84
2023-03-05T15:18:41.733Z,93161.53
2023-03-05T15:23:45.524Z,93174.66
2023-03-05T15:28:49.356Z,93174.75
2023-03-05T15:33:54.336Z,93180.03
2023-03-05T15:38:58.927Z,93186.91
2023-03-05T15:44:03.092Z,93186.03
2023-03-05T15:49:08.040Z,93196.31
2023-03-05T15:54:11.796Z,93191.59
2023-03-05T15:59:16.035Z,93192.97
2023-03-05T16:04:20.093Z,93224.44
2023-03-05T16:09:24.778Z,93211.75
2023-03-05T16:14:29.510Z,93204.69
2023-03-05T16:19:37.353Z,93216.78
2023-03-05T16:24:40.484Z,93206.09
2023-03-05T16:29:44.018Z,93208.72
2023-03-05T16:34:48.079Z,93216.00
2023-03-05T16:39:52.466Z,93228.59
2023-03-05T16:44:55.782Z,93233.63
2023-03-05T16:49:59.486Z,93217.84
2023-03-05T16:55:04.807Z,93236.59
2023-03-05T17:00:12.029Z,93259.03
2023-03-05T17:05:15.037Z,93272.53
2023-03-05T17:10:18.993Z,93273.91
2023-03-05T17:15:23.510Z,93280.28
2023-03-05T17:20:27.121Z,93278.91
2023-03-05T17:25:31.688Z,93285.53
2023-03-05T17:30:37.208Z,93280.41
2023-03-05T17:35:42.986Z,93295.69
2023-03-05T17:40:46.700Z,93306.09
2023-03-05T17:45:50.296Z,93318.66
2023-03-05T17:50:55.098Z,93320.78
2023-03-05T17:55:59.749Z,93318.81
2023-03-05T18:01:05.144Z,93323.06
2023-03-05T18:06:09.392Z,93317.97
2023-03-05T18:11:13.841Z,93330.22
2023-03-05T18:16:18.576Z,93313.97
2023-03-05T18:21:24.391Z,93339.38
2023-03-05T18:26:27.580Z,93350.81
2023-03-05T18:31:30.612Z,93364.03
2023-03-05T18:36:33.843Z,93363.34
2023-03-05T18:41:37.537Z,93366.28
2023-03-05T18:46:41.716Z,93370.22
2023-03-05T18:51:46.235Z,93364.28
2023-03-05T18:56:49.331Z,93360.69
2023-03-05T19:01:52.478Z,93374.50
2023-03-05T19:06:56.292Z,93392.16
2023-03-05T19:12:01.695Z,93392.66
2023-03-05T19:17:05.844Z,93379.03
2023-03-05T19:22:12.154Z,93385.22
2023-03-05T19:27:15.887Z,93393.94
2023-03-05T19:32:20.719Z,93383.81
2023-03-05T19:37:24.365Z,93394.19
2023-03-05T19:42:27.859Z,93378.97
2023-03-05T19:47:31.358Z,93402.41
2023-03-05T19:52:34.855Z,93398.97
2023-03-05T19:57:38.412Z,93406.91
2023-03-05T20:02:41.990Z,93420.56
2023-03-05T20:07:45.250Z,93418.44
2023-03-05T20:12:48.754Z,93416.06
2023-03-05T20:17:59.300Z,93431.19
2023-03-05T20:23:03.225Z,93428.50
2023-03-05T20:28:06.873Z,93433.91
2023-03-05T20:33:11.625Z,93427.59
2023-03-05T20:38:22.674Z,93429.03
2023-03-05T20:43:32.281Z,93443.94
2023-03-05T20:48:35.576Z,93438.41
2023-03-05T20:53:42.213Z,93433.34
2023-03-05T20:58:47.527Z,93443.94
2023-03-05T21:03:54.452Z,93442.03
2023-03-05T21:08:59.317Z,93439.78
2023-03-05T21:14:02.924Z,93440.78
2023-03-05T21:19:06.014Z,93434.63
2023-03-05T21:24:11.435Z,93449.78
2023-03-05T21:29:34.810Z,93439.78
2023-03-05T21:34:39.588Z,93440.78
2023-03-05T21:39:44.329Z,93440.00
2023-03-05T21:44:47.799Z,93436.28
2023-03-05T21:49:52.151Z,93431.56
2023-03-05T21:54:57.045Z,93435.16
2023-03-05T22:00:00.970Z,93426.59
2023-03-05T22:05:06.850Z,93426.06
2023-03-05T22:10:16.199Z,93421.78
2023-03-05T22:15:20.430Z,93403.00
2023-03-05T22:20:23.697Z,93393.78
2023-03-05T22:25:27.701Z,93398.28
2023-03-05T22:30:38.461Z,93384.44
2023-03-05T22:35:45.623Z,93379.50
2023-03-05T22:40:50.592Z,93393.78
2023-03-05T22:45:54.310Z,93405.91
2023-03-05T22:50:57.778Z,93406.13
2023-03-05T22:56:07.204Z,93408.28
2023-03-05T23:01:16.862Z,93415.00
2023-03-05T23:06:20.103Z,93423.88
2023-03-05T23:11:23.174Z,93421.91
2023-03-05T23:16:26.841Z,93405.59
2023-03-05T23:21:29.935Z,93421.91
2023-03-05T23:26:33.553Z,93407.47
2023-03-05T23:31:36.668Z,93426.34
2023-03-05T23:36:39.976Z,93424.84
2023-03-05T23:41:43.091Z,93431.94
2023-03-05T23:46:46.548Z,93432.72
2023-03-05T23:51:49.561Z,93439.69
2023-03-05T23:56:53.002Z,93448.22
